Montauk, New York
Current Conditions -  °F | °C
As of 9:56 AM on Thursday 27 Nov 2014 (Local Time) from KGON Reporting Station
Overcast Overcast  
Wind Chill:   Ceiling: 6500
Heat Index:   Visibility: 7mi
Dew Point:   Wind: 7mph
Humidity: 82%   Direction: 320°NW
Pressure: 29.97"   Gusts: NA
Location:  41.04°N, 71.95°W
Report Text: KGON 271456Z 32006KT 7SM OVC065 03/00 A2997 RMK AO2 SLP147 T00280000 50023 $
Loading
Personal Weather Stations






























Interactive Weather Map New forecast layout! Learn more

10-Day Weather Forecast

Advertisements
Track Severe Weather on mobile